Weather at Altarejos-Guadalcanal Private Airfield

Public forecast

Using degrees Celsius for public forecast. Weather courtesy of forecast.io.

Closest aviation weather report (METAR) to Altarejos-Guadalcanal Private Airfield

Closest report is Sevilla Airport, 45.8 nm (84.9 km) S. Retrieved 2021/09/20 00:30 UTC (14 minutes ago):

LEZL 200030Z AUTO 07001KT CAVOK 20/15 Q1017

Closest aviation forecast (TAF) to Altarejos-Guadalcanal Private Airfield

Closest forecast is Sevilla Airport, 45.8 nm (84.9 km) S. Retrieved 2021/09/19 21:27 UTC (3 hours ago):

TAF LEZL 192000Z 1921/2021 22004KT CAVOK TX32/2015Z TN16/2006Z